Ashford, Washington
Current Conditions -  °F | °C
As of 3:58 PM on Wednesday 22 Oct 2014 (Local Time) from KGRF Reporting Station
Light Rain Light Rain  
Wind Chill: 14°   Ceiling: 4800
Heat Index: 14°   Visibility: 9mi
Dew Point: 13°   Wind: 10mph
Humidity: 99%   Direction: 120°ESE
Pressure: 29.63"   Gusts: NA
Location:  46.76°N, 122.03°W
Report Text: KGRF 222258Z AUTO 12009KT 9SM -RA OVC048 14/13 A2963 RMK AO2 DZB2209E2211 SLP037 P0011 T01350133 $
Loading
Personal Weather Stations






























Interactive Weather Map
Tropical Storm Tracking
New forecast layout! Learn more

10-Day Weather Forecast

Advertisements
Track Severe Weather on mobile